createdAt,value
2019-05-26T00:01:18.102Z,10.90
2019-05-26T00:06:25.194Z,10.90
2019-05-26T00:11:31.847Z,10.80
2019-05-26T00:16:36.375Z,10.80
2019-05-26T00:21:43.639Z,10.70
2019-05-26T00:26:45.127Z,10.70
2019-05-26T00:31:46.414Z,10.70
2019-05-26T00:36:48.983Z,10.70
2019-05-26T00:41:52.411Z,10.70
2019-05-26T00:46:53.778Z,10.70
2019-05-26T00:51:55.355Z,10.70
2019-05-26T00:57:03.083Z,10.60
2019-05-26T01:02:04.594Z,10.60
2019-05-26T01:07:11.838Z,10.50
2019-05-26T01:12:13.123Z,10.50
2019-05-26T01:17:17.661Z,10.50
2019-05-26T01:22:24.760Z,10.40
2019-05-26T01:27:29.244Z,10.50
2019-05-26T01:32:30.511Z,10.50
2019-05-26T01:37:38.644Z,10.50
2019-05-26T01:42:40.179Z,10.50
2019-05-26T01:47:44.664Z,10.40
2019-05-26T01:52:46.099Z,10.40
2019-05-26T01:57:51.568Z,10.40
2019-05-26T02:02:53.084Z,10.30
2019-05-26T02:07:54.821Z,10.30
2019-05-26T02:12:56.100Z,10.20
2019-05-26T02:17:59.741Z,10.10
2019-05-26T02:23:02.825Z,10.10
2019-05-26T02:28:06.279Z,10.00
2019-05-26T02:33:08.665Z,9.90
2019-05-26T02:38:18.226Z,9.90
2019-05-26T02:43:19.540Z,9.90
2019-05-26T02:48:22.079Z,9.80
2019-05-26T02:53:25.689Z,9.80
2019-05-26T02:58:33.206Z,9.70
2019-05-26T03:03:40.725Z,9.70
2019-05-26T03:08:46.310Z,9.70
2019-05-26T03:13:50.546Z,9.80
2019-05-26T03:19:03.635Z,9.90
2019-05-26T03:24:16.498Z,10.10
2019-05-26T03:29:23.775Z,10.20
2019-05-26T03:34:28.993Z,10.40
2019-05-26T03:39:43.214Z,10.60
2019-05-26T03:44:34.568Z,10.80
2019-05-26T03:49:36.147Z,10.80
2019-05-26T03:54:45.600Z,10.90
2019-05-26T03:59:50.169Z,10.90
2019-05-26T04:04:54.675Z,11.00
2019-05-26T04:10:04.693Z,11.10
2019-05-26T04:15:05.583Z,11.20
2019-05-26T04:20:08.603Z,11.40
2019-05-26T04:25:11.153Z,11.40
2019-05-26T04:30:16.409Z,11.50
2019-05-26T04:35:26.845Z,11.60
2019-05-26T04:40:43.384Z,11.60
2019-05-26T04:45:47.927Z,11.70
2019-05-26T04:50:50.342Z,11.70
2019-05-26T04:55:51.808Z,11.90
2019-05-26T05:00:56.367Z,12.20
2019-05-26T05:05:57.809Z,12.40
2019-05-26T05:11:02.358Z,12.60
2019-05-26T05:16:04.745Z,12.80
2019-05-26T05:21:06.191Z,13.00
2019-05-26T05:26:10.795Z,13.30
2019-05-26T05:31:20.228Z,13.70
2019-05-26T05:36:24.772Z,14.20
2019-05-26T05:41:27.170Z,14.50
2019-05-26T05:46:29.565Z,14.50
2019-05-26T05:51:57.769Z,14.40
2019-05-26T05:57:02.808Z,14.40
2019-05-26T06:02:10.233Z,14.50
2019-05-26T06:07:13.851Z,14.90
2019-05-26T06:12:15.404Z,15.30
2019-05-26T06:17:16.837Z,15.50
2019-05-26T06:22:18.271Z,15.80
2019-05-26T06:27:22.814Z,16.10
2019-05-26T06:32:24.763Z,16.30
2019-05-26T06:37:31.856Z,16.50
2019-05-26T06:42:35.316Z,16.70
2019-05-26T06:47:38.832Z,16.80
2019-05-26T06:52:42.440Z,16.90
2019-05-26T06:57:47.000Z,17.20
2019-05-26T07:02:49.407Z,17.40
2019-05-26T07:07:51.887Z,17.50
2019-05-26T07:12:53.333Z,17.50
2019-05-26T07:17:54.742Z,17.50
2019-05-26T07:22:59.251Z,17.50
2019-05-26T07:28:01.610Z,17.70
2019-05-26T07:33:04.217Z,18.00
2019-05-26T07:38:12.510Z,18.40
2019-05-26T07:43:13.983Z,18.50
2019-05-26T07:48:28.704Z,18.60
2019-05-26T07:53:33.281Z,18.50
2019-05-26T07:58:47.620Z,18.50
2019-05-26T08:03:49.069Z,18.40
2019-05-26T08:08:50.582Z,18.50
2019-05-26T08:13:52.981Z,18.80
2019-05-26T08:18:57.572Z,19.10
2019-05-26T08:23:58.987Z,19.60
2019-05-26T08:29:07.473Z,20.00
2019-05-26T08:34:11.136Z,20.60
2019-05-26T08:39:18.869Z,21.00
2019-05-26T08:44:25.943Z,21.30
2019-05-26T08:49:30.495Z,21.80
2019-05-26T08:54:31.942Z,22.20
2019-05-26T08:59:34.470Z,22.70
2019-05-26T09:04:37.163Z,23.00
2019-05-26T09:09:39.744Z,23.10
2019-05-26T09:14:41.260Z,23.20
2019-05-26T09:19:42.691Z,23.50
2019-05-26T09:24:45.108Z,23.70
2019-05-26T09:29:56.433Z,23.90
2019-05-26T09:34:57.735Z,24.30
2019-05-26T09:40:00.270Z,24.60
2019-05-26T09:45:07.040Z,24.90
2019-05-26T09:50:11.998Z,24.60
2019-05-26T09:55:16.637Z,24.40
2019-05-26T10:00:20.872Z,24.40
2019-05-26T10:05:23.745Z,25.00
2019-05-26T10:10:25.239Z,25.10
2019-05-26T10:15:36.555Z,25.10
2019-05-26T10:20:38.931Z,25.00
2019-05-26T10:25:40.399Z,24.60
2019-05-26T10:30:44.963Z,24.30
2019-05-26T10:35:48.647Z,24.40
2019-05-26T10:40:51.103Z,24.90
2019-05-26T10:45:52.467Z,25.10
2019-05-26T10:50:59.782Z,25.20
2019-05-26T10:56:03.617Z,25.20
2019-05-26T11:01:05.178Z,25.40
2019-05-26T11:06:06.759Z,25.80
2019-05-26T11:11:11.190Z,26.00
2019-05-26T11:16:14.802Z,26.00
2019-05-26T11:21:21.941Z,26.00
2019-05-26T11:26:25.420Z,26.00
2019-05-26T11:31:26.902Z,26.00
2019-05-26T11:36:28.332Z,26.50
2019-05-26T11:41:29.776Z,27.70
2019-05-26T11:46:31.292Z,28.30
2019-05-26T11:51:32.717Z,28.10
2019-05-26T11:56:34.217Z,27.50
2019-05-26T12:01:37.746Z,26.90
2019-05-26T12:06:42.169Z,25.70
2019-05-26T12:11:43.587Z,24.10
2019-05-26T12:16:48.119Z,22.80
2019-05-26T12:21:51.438Z,22.20
2019-05-26T12:26:53.844Z,22.50
2019-05-26T12:31:55.379Z,23.40
2019-05-26T12:36:56.873Z,23.80
2019-05-26T12:42:04.281Z,23.50
2019-05-26T12:47:05.899Z,23.20
2019-05-26T12:52:08.312Z,23.00
2019-05-26T12:57:10.689Z,23.70
2019-05-26T13:02:13.079Z,24.10
2019-05-26T13:07:14.581Z,24.30
2019-05-26T13:12:21.649Z,24.30
2019-05-26T13:17:23.129Z,24.00
2019-05-26T13:22:26.653Z,24.30
2019-05-26T13:27:28.120Z,24.80
2019-05-26T13:32:30.525Z,25.50
2019-05-26T13:37:32.133Z,26.10
2019-05-26T13:42:33.377Z,26.80
2019-05-26T13:47:34.980Z,27.10
2019-05-26T13:52:37.376Z,26.90
2019-05-26T13:57:38.991Z,26.80
2019-05-26T14:02:40.724Z,26.80
2019-05-26T14:07:45.156Z,26.70
2019-05-26T14:12:48.780Z,27.20
2019-05-26T14:17:53.428Z,27.50
2019-05-26T14:22:56.041Z,27.50
2019-05-26T14:27:57.525Z,27.40
2019-05-26T14:33:07.881Z,26.80
2019-05-26T14:38:10.291Z,26.50
2019-05-26T14:43:11.739Z,26.90
2019-05-26T14:48:16.274Z,26.60
2019-05-26T14:53:18.669Z,26.10
2019-05-26T14:58:23.217Z,25.80
2019-05-26T15:03:27.753Z,25.40
2019-05-26T15:08:31.170Z,25.10
2019-05-26T15:13:33.566Z,25.60
2019-05-26T15:18:35.970Z,26.50
2019-05-26T15:23:38.358Z,26.00
2019-05-26T15:28:40.752Z,25.30
2019-05-26T15:33:45.438Z,24.70
2019-05-26T15:38:46.736Z,25.00
2019-05-26T15:43:50.321Z,24.70
2019-05-26T15:48:54.940Z,24.60
2019-05-26T15:53:59.484Z,25.00
2019-05-26T15:59:03.338Z,24.80
2019-05-26T16:04:04.970Z,24.00
2019-05-26T16:09:06.554Z,23.70
2019-05-26T16:14:09.171Z,23.30
2019-05-26T16:19:13.784Z,22.60
2019-05-26T16:24:15.877Z,22.00
2019-05-26T16:29:20.363Z,22.20
2019-05-26T16:34:23.866Z,22.20
2019-05-26T16:39:36.499Z,21.90
2019-05-26T16:44:28.665Z,21.30
2019-05-26T16:49:35.966Z,20.90
2019-05-26T16:54:38.461Z,20.60
2019-05-26T16:59:39.933Z,20.40
2019-05-26T17:04:41.407Z,20.10
2019-05-26T17:09:46.153Z,19.80
2019-05-26T17:14:47.730Z,19.70
2019-05-26T17:19:52.628Z,19.80
2019-05-26T17:24:52.509Z,19.70
2019-05-26T17:29:55.002Z,19.50
2019-05-26T17:34:57.336Z,19.30
2019-05-26T17:39:58.877Z,19.20
2019-05-26T17:45:01.580Z,19.30
2019-05-26T17:50:07.377Z,19.20
2019-05-26T17:55:09.508Z,19.00
2019-05-26T18:00:18.771Z,18.90
2019-05-26T18:05:21.319Z,18.90
2019-05-26T18:10:22.777Z,19.00
2019-05-26T18:15:25.773Z,19.10
2019-05-26T18:20:27.238Z,19.30
2019-05-26T18:25:28.745Z,19.50
2019-05-26T18:30:35.245Z,19.60
2019-05-26T18:35:36.585Z,19.50
2019-05-26T18:40:40.320Z,19.30
2019-05-26T18:45:43.244Z,19.00
2019-05-26T18:50:44.730Z,18.60
2019-05-26T18:55:51.762Z,18.30
2019-05-26T19:00:54.094Z,18.10
2019-05-26T19:05:56.502Z,17.90
2019-05-26T19:10:57.959Z,17.70
2019-05-26T19:16:03.180Z,17.60
2019-05-26T19:21:04.780Z,17.60
2019-05-26T19:26:06.383Z,17.60
2019-05-26T19:31:07.888Z,17.60
2019-05-26T19:36:09.915Z,17.50
2019-05-26T19:41:11.449Z,17.40
2019-05-26T19:46:12.859Z,17.40
2019-05-26T19:51:14.373Z,17.40
2019-05-26T19:56:18.094Z,17.30
2019-05-26T20:01:19.436Z,17.30
2019-05-26T20:06:20.955Z,17.30
2019-05-26T20:11:22.398Z,17.30
2019-05-26T20:16:30.507Z,17.30
2019-05-26T20:21:32.411Z,17.20
2019-05-26T20:26:34.802Z,17.20
2019-05-26T20:31:39.358Z,17.10
2019-05-26T20:36:40.824Z,17.10
2019-05-26T20:41:43.237Z,17.00
2019-05-26T20:46:44.729Z,17.00
2019-05-26T20:51:46.295Z,16.90
2019-05-26T20:56:49.819Z,16.90
2019-05-26T21:01:53.411Z,16.80
2019-05-26T21:06:55.844Z,16.80
2019-05-26T21:11:57.308Z,16.70
2019-05-26T21:16:58.882Z,16.60
2019-05-26T21:22:01.472Z,16.50
2019-05-26T21:27:03.453Z,16.10
2019-05-26T21:32:05.962Z,15.70
2019-05-26T21:37:07.538Z,15.30
2019-05-26T21:42:08.899Z,15.10
2019-05-26T21:47:17.736Z,14.90
2019-05-26T21:52:20.154Z,14.90
2019-05-26T21:57:22.576Z,14.80
2019-05-26T22:02:24.206Z,14.80
2019-05-26T22:07:25.516Z,14.80
2019-05-26T22:12:26.971Z,14.70
2019-05-26T22:17:31.563Z,14.60
2019-05-26T22:22:33.026Z,14.60
2019-05-26T22:27:35.472Z,14.60
2019-05-26T22:32:36.872Z,14.60
2019-05-26T22:37:44.046Z,14.60
2019-05-26T22:42:46.582Z,14.50
2019-05-26T22:47:53.790Z,14.50
2019-05-26T22:52:57.203Z,14.50
2019-05-26T22:57:58.761Z,14.50
2019-05-26T23:03:00.127Z,14.50
2019-05-26T23:08:01.412Z,14.50
2019-05-26T23:13:16.984Z,14.40
2019-05-26T23:18:28.498Z,14.40
2019-05-26T23:23:39.176Z,14.40
2019-05-26T23:28:43.714Z,14.40
2019-05-26T23:33:46.126Z,14.30
2019-05-26T23:39:01.839Z,14.40
2019-05-26T23:44:06.247Z,14.30
2019-05-26T23:49:19.706Z,14.30
2019-05-26T23:54:29.052Z,14.30
2019-05-26T23:59:40.468Z,14.30
